This is the latest recevied weather packets stored in our database for station/object LU5DTF-1. If no packets are shown the sender has not sent any weather packets the latest 10 day(s).
| Time | Temp. | Humidity | Pressure | Rain* | Wind** | Luminosity | Snow |
|---|---|---|---|---|---|---|---|
| 1777746896 | 13.33° C | 64% | 1022 hPa | 0 mm | - | - | - |
| 1777746596 | 13.33° C | 63% | 1021.8 hPa | 0 mm | - | - | - |
| 1777746296 | 13.33° C | 63% | 1021.6 hPa | 0 mm | - | - | - |
| 1777745996 | 12.78° C | 65% | 1021.9 hPa | 0 mm | - | - | - |
| 1777745696 | 12.78° C | 65% | 1021.7 hPa | 0 mm | - | - | - |
| 1777745396 | 13.33° C | 64% | 1021.6 hPa | 0 mm | - | - | - |
| 1777745096 | 13.33° C | 64% | 1021.6 hPa | 0 mm | - | - | - |
| 1777744796 | 13.89° C | 63% | 1021.4 hPa | 0 mm | - | - | - |
| 1777744499 | 13.33° C | 59% | 1021.5 hPa | 0 mm | - | - | - |
| 1777744196 | 13.33° C | 59% | 1021.6 hPa | 0 mm | - | - | - |
| 1777743896 | 13.33° C | 63% | 1021.5 hPa | 0 mm | - | - | - |
| 1777743596 | 13.33° C | 62% | 1021.5 hPa | 0 mm | - | - | - |
| 1777743296 | 13.33° C | 63% | 1021.6 hPa | 0 mm | - | - | - |
| 1777742996 | 13.33° C | 53% | 1021.2 hPa | 0 mm | - | - | - |
| 1777742696 | 13.33° C | 56% | 1021.4 hPa | 0 mm | - | - | - |
| 1777742396 | 13.33° C | 59% | 1021.6 hPa | 0 mm | - | - | - |
| 1777742099 | 13.33° C | 62% | 1021.4 hPa | 0 mm | - | - | - |
| 1777741797 | 13.33° C | 61% | 1021.4 hPa | 0 mm | - | - | - |
| 1777741496 | 13.33° C | 61% | 1021.3 hPa | 0 mm | - | - | - |
| 1777741196 | 13.33° C | 63% | 1021.4 hPa | 0 mm | - | - | - |
| 1777740896 | 13.33° C | 61% | 1021.4 hPa | 0 mm | - | - | - |
| 1777740596 | 13.33° C | 59% | 1021.3 hPa | 0 mm | - | - | - |
| 1777740296 | 13.33° C | 60% | 1021.4 hPa | 0 mm | - | - | - |
| 1777739996 | 13.33° C | 54% | 1021 hPa | 0 mm | - | - | - |
| 1777739696 | 13.89° C | 59% | 1021.3 hPa | 0 mm | - | - | - |
* Rain latest hour (hover to see other rain measurements)
** Current wind speed in m/s (hover to see current wind gust speed)